createdAt,value
2017-07-01T00:00:48.787Z,23.20
2017-07-01T00:03:17.522Z,23.20
2017-07-01T00:05:46.323Z,21.40
2017-07-01T00:08:15.270Z,22.43
2017-07-01T00:10:44.719Z,21.70
2017-07-01T00:13:13.617Z,21.53
2017-07-01T00:15:42.609Z,22.80
2017-07-01T00:18:11.499Z,22.40
2017-07-01T00:20:40.351Z,21.70
2017-07-01T00:23:09.995Z,22.43
2017-07-01T00:25:38.782Z,22.93
2017-07-01T00:28:06.974Z,23.13
2017-07-01T00:30:35.751Z,24.50
2017-07-01T00:33:04.534Z,23.00
2017-07-01T00:35:33.431Z,24.40
2017-07-01T00:38:01.735Z,23.67
2017-07-01T00:40:30.084Z,24.80
2017-07-01T00:42:58.286Z,23.50
2017-07-01T00:45:26.617Z,25.60
2017-07-01T00:47:55.335Z,24.53
2017-07-01T00:50:24.127Z,27.53
2017-07-01T00:52:53.328Z,27.80
2017-07-01T00:55:22.115Z,25.43
2017-07-01T00:57:51.110Z,25.67
2017-07-01T01:00:19.823Z,23.93
2017-07-01T01:02:48.374Z,23.03
2017-07-01T01:05:17.274Z,25.53
2017-07-01T01:07:45.835Z,23.03
2017-07-01T01:10:14.764Z,23.17
2017-07-01T01:12:43.379Z,23.37
2017-07-01T01:15:12.226Z,23.63
2017-07-01T01:17:41.019Z,23.40
2017-07-01T01:20:10.011Z,22.60
2017-07-01T01:22:39.313Z,23.07
2017-07-01T01:25:08.206Z,23.60
2017-07-01T01:27:36.994Z,21.00
2017-07-01T01:30:06.083Z,22.50
2017-07-01T01:32:34.715Z,21.93
2017-07-01T01:35:03.382Z,21.93
2017-07-01T01:37:32.755Z,20.27
2017-07-01T01:40:01.699Z,21.40
2017-07-01T01:42:30.346Z,22.77
2017-07-01T01:44:59.538Z,22.83
2017-07-01T01:47:28.643Z,22.67
2017-07-01T01:49:57.731Z,20.60
2017-07-01T01:52:26.307Z,21.67
2017-07-01T01:54:54.743Z,20.77
2017-07-01T01:57:23.699Z,19.57
2017-07-01T01:59:52.675Z,21.47
2017-07-01T02:02:21.683Z,19.87
2017-07-01T02:04:50.675Z,20.10
2017-07-01T02:07:19.875Z,19.37
2017-07-01T02:09:48.444Z,21.40
2017-07-01T02:12:17.803Z,22.17
2017-07-01T02:14:52.247Z,20.20
2017-07-01T02:17:43.295Z,20.30
2017-07-01T02:20:19.976Z,18.73
2017-07-01T02:22:49.067Z,19.67
2017-07-01T02:25:28.539Z,19.23
2017-07-01T02:27:57.611Z,19.73
2017-07-01T02:30:26.812Z,21.67
2017-07-01T02:33:12.003Z,18.47
2017-07-01T02:35:42.531Z,18.07
2017-07-01T02:38:11.119Z,19.00
2017-07-01T02:40:40.344Z,21.10
2017-07-01T02:43:08.863Z,19.93
2017-07-01T02:45:59.554Z,20.37
2017-07-01T02:48:48.665Z,17.70
2017-07-01T02:51:27.355Z,19.43
2017-07-01T02:53:55.881Z,19.37
2017-07-01T02:56:40.737Z,20.70
2017-07-01T02:59:17.094Z,17.10
2017-07-01T03:01:48.535Z,18.80
2017-07-01T03:04:17.742Z,17.50
2017-07-01T03:06:46.846Z,18.27
2017-07-01T03:09:15.483Z,17.43
2017-07-01T03:11:45.226Z,19.43
2017-07-01T03:14:14.271Z,18.87
2017-07-01T03:16:43.375Z,17.70
2017-07-01T03:19:13.349Z,17.53
2017-07-01T03:21:42.434Z,18.20
2017-07-01T03:24:11.684Z,18.63
2017-07-01T03:26:40.182Z,16.63
2017-07-01T03:29:10.576Z,17.97
2017-07-01T03:31:39.499Z,17.37
2017-07-01T03:34:09.363Z,18.30
2017-07-01T03:36:40.099Z,18.10
2017-07-01T03:39:20.669Z,17.97
2017-07-01T03:42:01.342Z,19.03
2017-07-01T03:44:53.684Z,19.60
2017-07-01T03:47:33.803Z,18.13
2017-07-01T03:50:05.806Z,17.40
2017-07-01T03:52:35.655Z,18.70
2017-07-01T03:55:05.275Z,19.20
2017-07-01T03:57:45.566Z,19.03
2017-07-01T04:00:14.771Z,17.23
2017-07-01T04:02:43.764Z,19.27
2017-07-01T04:05:12.958Z,19.57
2017-07-01T04:07:44.930Z,18.73
2017-07-01T04:10:13.919Z,18.80
2017-07-01T04:12:43.032Z,20.83
2017-07-01T04:15:12.215Z,17.63
2017-07-01T04:17:41.464Z,17.43
2017-07-01T04:20:12.940Z,17.70
2017-07-01T04:22:49.199Z,17.83
2017-07-01T04:25:19.047Z,20.57
2017-07-01T04:27:48.151Z,19.77
2017-07-01T04:30:17.450Z,17.60
2017-07-01T04:32:46.495Z,17.77
2017-07-01T04:35:16.419Z,16.80
2017-07-01T04:37:46.400Z,17.17
2017-07-01T04:40:18.742Z,15.90
2017-07-01T04:43:02.391Z,15.90
2017-07-01T04:45:39.971Z,13.20
2017-07-01T04:48:16.359Z,14.37
2017-07-01T04:50:56.731Z,15.23
2017-07-01T04:53:25.448Z,15.30
2017-07-01T04:55:54.299Z,14.07
2017-07-01T04:58:22.847Z,14.30
2017-07-01T05:00:51.963Z,13.67
2017-07-01T05:03:20.658Z,13.53
2017-07-01T05:05:51.562Z,13.13
2017-07-01T05:08:39.851Z,13.60
2017-07-01T05:11:08.838Z,12.20
2017-07-01T05:13:37.935Z,13.07
2017-07-01T05:16:27.684Z,12.48
2017-07-01T05:18:56.199Z,12.10
2017-07-01T05:21:25.243Z,12.10
2017-07-01T05:23:55.301Z,10.70
2017-07-01T05:26:23.875Z,11.30
2017-07-01T05:28:52.775Z,11.32
2017-07-01T05:31:25.623Z,10.00
2017-07-01T05:33:57.914Z,11.77
2017-07-01T05:36:31.182Z,12.20
2017-07-01T05:38:59.695Z,11.25
2017-07-01T05:41:29.651Z,11.50
2017-07-01T05:43:58.843Z,11.10
2017-07-01T05:46:31.495Z,10.35
2017-07-01T05:49:04.419Z,11.15
2017-07-01T05:51:51.378Z,11.25
2017-07-01T05:54:28.419Z,11.38
2017-07-01T05:56:57.551Z,11.35
2017-07-01T05:59:38.306Z,10.90
2017-07-01T06:02:07.251Z,10.57
2017-07-01T06:04:35.751Z,12.00
2017-07-01T06:07:05.005Z,10.88
2017-07-01T06:09:46.049Z,11.70
2017-07-01T06:12:40.439Z,11.85
2017-07-01T06:15:10.007Z,12.40
2017-07-01T06:17:41.991Z,13.20
2017-07-01T06:20:16.719Z,12.32
2017-07-01T06:22:51.409Z,10.70
2017-07-01T06:25:19.927Z,12.15
2017-07-01T06:27:52.840Z,10.30
2017-07-01T06:30:35.349Z,12.43
2017-07-01T06:33:06.918Z,12.20
2017-07-01T06:35:35.978Z,11.77
2017-07-01T06:38:20.867Z,11.52
2017-07-01T06:41:14.379Z,11.50
2017-07-01T06:44:01.739Z,10.95
2017-07-01T06:46:40.199Z,12.88
2017-07-01T06:49:09.967Z,13.02
2017-07-01T06:51:39.079Z,11.93
2017-07-01T06:54:08.950Z,13.05
2017-07-01T06:56:38.901Z,11.32
2017-07-01T06:59:08.003Z,11.00
2017-07-01T07:01:37.001Z,11.55
2017-07-01T07:04:06.784Z,11.70
2017-07-01T07:06:35.667Z,12.35
2017-07-01T07:09:06.351Z,11.00
2017-07-01T07:11:35.423Z,11.50
2017-07-01T07:14:04.337Z,13.10
2017-07-01T07:16:33.274Z,12.18
2017-07-01T07:19:03.236Z,12.37
2017-07-01T07:21:32.335Z,13.15
2017-07-01T07:24:01.531Z,12.40
2017-07-01T07:26:30.776Z,10.98
2017-07-01T07:29:00.751Z,10.00
2017-07-01T07:31:29.847Z,11.00
2017-07-01T07:33:59.039Z,12.30
2017-07-01T07:36:27.559Z,11.63
2017-07-01T07:38:56.727Z,11.30
2017-07-01T07:41:26.332Z,10.77
2017-07-01T07:43:55.322Z,11.32
2017-07-01T07:46:24.015Z,11.23
2017-07-01T07:48:53.015Z,11.75
2017-07-01T07:51:21.754Z,11.57
2017-07-01T07:53:51.194Z,10.98
2017-07-01T07:56:19.455Z,10.88
2017-07-01T07:58:48.127Z,12.77
2017-07-01T08:01:17.731Z,12.43
2017-07-01T08:03:47.331Z,15.50
2017-07-01T08:06:16.603Z,12.87
2017-07-01T08:08:45.372Z,12.35
2017-07-01T08:11:14.266Z,14.50
2017-07-01T08:13:43.019Z,12.87
2017-07-01T08:16:12.459Z,14.40
2017-07-01T08:18:41.464Z,15.07
2017-07-01T08:21:10.352Z,14.40
2017-07-01T08:23:39.195Z,12.27
2017-07-01T08:26:08.890Z,15.00
2017-07-01T08:28:37.552Z,13.70
2017-07-01T08:31:06.423Z,13.70
2017-07-01T08:33:35.527Z,13.50
2017-07-01T08:36:05.035Z,13.13
2017-07-01T08:38:33.616Z,12.83
2017-07-01T08:41:02.611Z,14.20
2017-07-01T08:43:31.414Z,12.93
2017-07-01T08:46:00.947Z,12.50
2017-07-01T08:48:29.307Z,12.60
2017-07-01T08:50:58.179Z,12.70
2017-07-01T08:53:26.458Z,13.40
2017-07-01T08:55:55.390Z,12.53
2017-07-01T08:58:24.130Z,12.27
2017-07-01T09:00:52.987Z,12.70
2017-07-01T09:03:22.539Z,12.77
2017-07-01T09:05:51.319Z,11.40
2017-07-01T09:08:20.274Z,11.67
2017-07-01T09:10:49.715Z,12.00
2017-07-01T09:13:17.899Z,12.80
2017-07-01T09:15:46.526Z,11.60
2017-07-01T09:18:15.367Z,13.73
2017-07-01T09:20:44.155Z,12.77
2017-07-01T09:23:13.058Z,12.10
2017-07-01T09:25:42.011Z,12.47
2017-07-01T09:28:10.292Z,12.77
2017-07-01T09:30:39.948Z,12.33
2017-07-01T09:33:08.718Z,13.07
2017-07-01T09:35:37.355Z,12.80
2017-07-01T09:38:05.995Z,12.23
2017-07-01T09:40:35.091Z,13.97
2017-07-01T09:43:04.435Z,13.23
2017-07-01T09:45:33.193Z,14.00
2017-07-01T09:48:02.383Z,15.63
2017-07-01T09:50:31.185Z,17.30
2017-07-01T09:53:00.083Z,14.90
2017-07-01T09:55:29.167Z,15.70
2017-07-01T09:57:57.756Z,15.43
2017-07-01T10:00:26.432Z,17.57
2017-07-01T10:02:54.822Z,15.73
2017-07-01T10:05:23.814Z,17.40
2017-07-01T10:07:52.403Z,15.90
2017-07-01T10:10:21.331Z,19.10
2017-07-01T10:12:50.079Z,20.30
2017-07-01T10:15:18.927Z,21.03
2017-07-01T10:17:48.523Z,18.70
2017-07-01T10:20:17.262Z,20.07
2017-07-01T10:22:46.268Z,21.40
2017-07-01T10:25:15.252Z,21.43
2017-07-01T10:27:44.151Z,23.20
2017-07-01T10:30:12.951Z,23.50
2017-07-01T10:32:41.818Z,25.50
2017-07-01T10:35:10.622Z,23.93
2017-07-01T10:37:39.298Z,23.23
2017-07-01T10:40:08.296Z,23.93
2017-07-01T10:42:37.195Z,22.73
2017-07-01T10:45:05.480Z,23.07
2017-07-01T10:47:34.199Z,22.67
2017-07-01T10:50:03.043Z,23.20
2017-07-01T10:52:31.779Z,22.50
2017-07-01T10:55:00.726Z,23.00
2017-07-01T10:57:29.523Z,22.67
2017-07-01T10:59:57.747Z,25.13
2017-07-01T11:02:27.511Z,24.00
2017-07-01T11:04:56.359Z,23.13
2017-07-01T11:07:24.505Z,22.20
2017-07-01T11:09:53.360Z,23.47
2017-07-01T11:12:22.151Z,21.27
2017-07-01T11:14:50.947Z,20.17
2017-07-01T11:17:19.944Z,22.27
2017-07-01T11:19:48.731Z,20.70
2017-07-01T11:22:17.623Z,19.90
2017-07-01T11:24:46.331Z,21.07
2017-07-01T11:27:14.940Z,21.60
2017-07-01T11:29:44.199Z,20.50
2017-07-01T11:32:12.979Z,22.70
2017-07-01T11:34:41.717Z,20.63
2017-07-01T11:37:10.566Z,22.13
2017-07-01T11:39:39.518Z,24.70
2017-07-01T11:42:09.063Z,23.70
2017-07-01T11:44:37.747Z,21.63
2017-07-01T11:47:06.747Z,21.43
2017-07-01T11:49:35.539Z,20.87
2017-07-01T11:52:03.899Z,22.20
2017-07-01T11:54:32.807Z,19.60
2017-07-01T11:57:01.567Z,19.00
2017-07-01T11:59:30.294Z,19.00
2017-07-01T12:01:59.383Z,17.77
2017-07-01T12:04:28.132Z,18.67
2017-07-01T12:06:57.571Z,16.80
2017-07-01T12:09:25.865Z,16.57
2017-07-01T12:11:54.478Z,17.63
2017-07-01T12:14:23.331Z,17.10
2017-07-01T12:16:52.325Z,17.50
2017-07-01T12:19:21.116Z,17.00
2017-07-01T12:21:49.959Z,15.97
2017-07-01T12:24:18.260Z,16.77
2017-07-01T12:26:46.963Z,15.40
2017-07-01T12:29:15.765Z,16.80
2017-07-01T12:31:44.655Z,16.57
2017-07-01T12:34:13.604Z,17.47
2017-07-01T12:36:43.051Z,18.50
2017-07-01T12:39:12.770Z,17.00
2017-07-01T12:41:40.955Z,18.37
2017-07-01T12:44:09.784Z,18.07
2017-07-01T12:46:39.483Z,18.10
2017-07-01T12:49:08.231Z,17.47
2017-07-01T12:51:37.018Z,17.63
2017-07-01T12:54:06.211Z,18.00
2017-07-01T12:56:34.858Z,17.53
2017-07-01T12:59:04.303Z,16.70
2017-07-01T13:01:33.191Z,16.70
2017-07-01T13:04:01.403Z,18.30
2017-07-01T13:06:30.051Z,17.90
2017-07-01T13:08:58.795Z,18.57
2017-07-01T13:11:27.747Z,16.10
2017-07-01T13:13:56.644Z,16.20
2017-07-01T13:16:24.946Z,18.37
2017-07-01T13:18:53.595Z,17.00
2017-07-01T13:21:22.392Z,16.77
2017-07-01T13:23:51.381Z,17.97
2017-07-01T13:26:20.278Z,17.80
2017-07-01T13:28:49.931Z,16.13
2017-07-01T13:31:18.823Z,16.90
2017-07-01T13:33:47.522Z,16.80
2017-07-01T13:36:16.964Z,17.90
2017-07-01T13:38:45.907Z,18.63
2017-07-01T13:41:14.655Z,18.40
2017-07-01T13:43:43.447Z,18.70
2017-07-01T13:46:11.703Z,18.77
2017-07-01T13:48:40.502Z,19.17
2017-07-01T13:51:09.298Z,23.37
2017-07-01T13:53:38.301Z,20.53
2017-07-01T13:56:07.247Z,21.80
2017-07-01T13:58:35.424Z,22.60
2017-07-01T14:01:03.763Z,24.23
2017-07-01T14:03:32.326Z,20.27
2017-07-01T14:06:00.594Z,22.27
2017-07-01T14:08:29.451Z,21.63
2017-07-01T14:10:59.007Z,21.00
2017-07-01T14:13:27.795Z,21.67
2017-07-01T14:15:56.182Z,21.20
2017-07-01T14:18:24.800Z,21.90
2017-07-01T14:20:53.440Z,23.20
2017-07-01T14:23:22.339Z,24.47
2017-07-01T14:25:51.183Z,23.40
2017-07-01T14:28:20.628Z,22.57
2017-07-01T14:30:49.619Z,23.30
2017-07-01T14:33:18.411Z,23.40
2017-07-01T14:35:47.307Z,20.90
2017-07-01T14:38:15.635Z,22.10
2017-07-01T14:40:45.300Z,21.90
2017-07-01T14:43:14.144Z,20.33
2017-07-01T14:45:42.402Z,21.23
2017-07-01T14:48:10.631Z,21.77
2017-07-01T14:50:39.487Z,21.90
2017-07-01T14:53:07.827Z,21.27
2017-07-01T14:55:36.643Z,22.33
2017-07-01T14:58:05.691Z,22.47
2017-07-01T15:00:34.587Z,23.63
2017-07-01T15:03:03.383Z,23.33
2017-07-01T15:05:32.226Z,24.97
2017-07-01T15:08:00.619Z,22.93
2017-07-01T15:10:29.330Z,25.37
2017-07-01T15:12:57.515Z,24.57
2017-07-01T15:15:26.295Z,25.27
2017-07-01T15:17:54.886Z,24.90
2017-07-01T15:20:23.679Z,27.17
2017-07-01T15:22:52.475Z,26.40
2017-07-01T15:25:21.468Z,28.80
2017-07-01T15:27:50.156Z,26.33
2017-07-01T15:30:19.031Z,29.00
2017-07-01T15:32:47.166Z,25.50
2017-07-01T15:35:16.613Z,26.30
2017-07-01T15:37:45.492Z,27.83
2017-07-01T15:40:14.198Z,24.07
2017-07-01T15:42:42.941Z,25.47
2017-07-01T15:45:12.481Z,29.00
2017-07-01T15:47:41.181Z,28.87
2017-07-01T15:50:10.133Z,28.77
2017-07-01T15:52:39.817Z,26.67
2017-07-01T15:55:08.561Z,27.97
2017-07-01T15:57:37.470Z,29.17
2017-07-01T16:00:06.549Z,26.97
2017-07-01T16:02:35.557Z,28.80
2017-07-01T16:05:04.449Z,28.73
2017-07-01T16:07:33.548Z,28.77
2017-07-01T16:10:02.509Z,28.67
2017-07-01T16:12:31.489Z,27.77
2017-07-01T16:15:01.085Z,30.17
2017-07-01T16:17:29.713Z,28.17
2017-07-01T16:19:58.574Z,31.30
2017-07-01T16:22:28.213Z,29.10
2017-07-01T16:24:56.409Z,30.50
2017-07-01T16:27:25.311Z,28.03
2017-07-01T16:29:54.099Z,29.67
2017-07-01T16:32:22.706Z,29.03
2017-07-01T16:34:51.461Z,28.90
2017-07-01T16:37:20.453Z,29.80
2017-07-01T16:39:49.245Z,28.17
2017-07-01T16:42:18.037Z,26.97
2017-07-01T16:44:47.185Z,27.13
2017-07-01T16:47:16.621Z,28.77
2017-07-01T16:49:45.428Z,28.17
2017-07-01T16:52:14.317Z,29.20
2017-07-01T16:54:43.165Z,27.80
2017-07-01T16:57:12.601Z,27.87
2017-07-01T16:59:41.509Z,28.77
2017-07-01T17:02:10.354Z,28.67
2017-07-01T17:04:40.109Z,29.80
2017-07-01T17:07:09.145Z,27.57
2017-07-01T17:09:37.349Z,29.73
2017-07-01T17:12:06.772Z,31.20
2017-07-01T17:14:35.049Z,30.00
2017-07-01T17:17:03.680Z,29.37
2017-07-01T17:19:32.325Z,32.03
2017-07-01T17:22:01.435Z,30.67
2017-07-01T17:24:30.194Z,30.40
2017-07-01T17:26:58.340Z,29.80
2017-07-01T17:29:27.173Z,30.33
2017-07-01T17:31:55.397Z,28.57
2017-07-01T17:34:23.947Z,27.70
2017-07-01T17:36:52.833Z,27.60
2017-07-01T17:39:21.617Z,30.20
2017-07-01T17:41:50.417Z,31.80
2017-07-01T17:44:18.735Z,28.27
2017-07-01T17:46:47.378Z,28.53
2017-07-01T17:49:16.278Z,28.47
2017-07-01T17:51:45.269Z,29.47
2017-07-01T17:54:14.061Z,30.80
2017-07-01T17:56:42.956Z,28.77
2017-07-01T17:59:11.185Z,29.17
2017-07-01T18:01:40.750Z,28.53
2017-07-01T18:04:09.109Z,27.30
2017-07-01T18:06:38.001Z,25.60
2017-07-01T18:09:06.898Z,29.50
2017-07-01T18:11:35.641Z,30.40
2017-07-01T18:14:05.190Z,27.60
2017-07-01T18:16:34.041Z,28.90
2017-07-01T18:19:03.377Z,28.63
2017-07-01T18:21:32.273Z,28.90
2017-07-01T18:24:00.453Z,25.77
2017-07-01T18:26:29.129Z,24.30
2017-07-01T18:28:57.421Z,24.53
2017-07-01T18:31:26.006Z,26.00
2017-07-01T18:33:54.582Z,26.07
2017-07-01T18:36:23.601Z,26.73
2017-07-01T18:38:51.802Z,25.80
2017-07-01T18:41:20.377Z,25.33
2017-07-01T18:43:49.324Z,27.33
2017-07-01T18:46:18.221Z,27.73
2017-07-01T18:48:47.121Z,28.07
2017-07-01T18:51:16.209Z,29.43
2017-07-01T18:53:45.113Z,28.57
2017-07-01T18:56:14.061Z,28.57
2017-07-01T18:58:43.706Z,27.87
2017-07-01T19:01:12.493Z,30.50
2017-07-01T19:03:41.248Z,29.03
2017-07-01T19:06:10.981Z,29.47
2017-07-01T19:08:39.585Z,28.30
2017-07-01T19:11:08.586Z,29.13
2017-07-01T19:13:37.584Z,29.00
2017-07-01T19:16:05.846Z,29.27
2017-07-01T19:18:34.545Z,31.07
2017-07-01T19:21:03.365Z,29.93
2017-07-01T19:23:32.126Z,29.80
2017-07-01T19:26:00.368Z,29.23
2017-07-01T19:28:30.113Z,30.53
2017-07-01T19:30:58.801Z,31.50
2017-07-01T19:33:26.974Z,31.43
2017-07-01T19:35:55.861Z,28.83
2017-07-01T19:38:24.861Z,31.53
2017-07-01T19:40:53.705Z,30.60
2017-07-01T19:43:23.449Z,31.23
2017-07-01T19:45:52.161Z,29.73
2017-07-01T19:48:21.045Z,28.47
2017-07-01T19:50:50.141Z,30.13
2017-07-01T19:53:18.985Z,30.63
2017-07-01T19:55:48.422Z,30.73
2017-07-01T19:58:17.316Z,30.23
2017-07-01T20:00:46.329Z,28.70
2017-07-01T20:03:15.065Z,27.57
2017-07-01T20:05:43.356Z,26.27
2017-07-01T20:08:13.054Z,27.63
2017-07-01T20:10:42.405Z,26.80
2017-07-01T20:13:11.502Z,27.40
2017-07-01T20:15:40.345Z,24.63
2017-07-01T20:18:08.540Z,26.73
2017-07-01T20:20:37.441Z,26.17
2017-07-01T20:23:06.143Z,27.17
2017-07-01T20:25:34.941Z,28.40
2017-07-01T20:28:03.933Z,29.10
2017-07-01T20:30:32.826Z,29.63
2017-07-01T20:33:00.996Z,30.90
2017-07-01T20:35:29.281Z,30.33
2017-07-01T20:37:57.865Z,28.93
2017-07-01T20:40:26.537Z,32.53
2017-07-01T20:42:55.441Z,32.30
2017-07-01T20:45:24.286Z,30.97
2017-07-01T20:47:53.725Z,31.33
2017-07-01T20:50:22.041Z,30.43
2017-07-01T20:52:50.593Z,32.30
2017-07-01T20:55:19.176Z,33.37
2017-07-01T20:57:48.169Z,33.97
2017-07-01T21:00:17.617Z,34.10
2017-07-01T21:02:46.373Z,34.50
2017-07-01T21:05:15.369Z,35.00
2017-07-01T21:07:44.213Z,33.97
2017-07-01T21:10:12.525Z,35.27
2017-07-01T21:12:42.366Z,35.03
2017-07-01T21:15:11.893Z,35.83
2017-07-01T21:17:40.638Z,35.63
2017-07-01T21:20:10.716Z,35.13
2017-07-01T21:22:40.057Z,36.43
2017-07-01T21:25:08.809Z,38.03
2017-07-01T21:27:38.506Z,37.30
2017-07-01T21:30:06.665Z,34.77
2017-07-01T21:32:35.537Z,35.20
2017-07-01T21:35:04.235Z,37.40
2017-07-01T21:37:32.936Z,36.80
2017-07-01T21:40:01.697Z,37.90
2017-07-01T21:42:30.694Z,36.30
2017-07-01T21:44:59.548Z,38.87
2017-07-01T21:47:28.377Z,38.00
2017-07-01T21:49:57.037Z,38.27
2017-07-01T21:52:25.837Z,38.43
2017-07-01T21:54:54.625Z,36.77
2017-07-01T21:57:23.533Z,39.63
2017-07-01T21:59:52.525Z,37.70
2017-07-01T22:02:21.373Z,39.27
2017-07-01T22:04:50.926Z,40.20
2017-07-01T22:07:19.712Z,38.47
2017-07-01T22:09:48.561Z,39.90
2017-07-01T22:12:17.065Z,40.70
2017-07-01T22:14:45.706Z,40.37
2017-07-01T22:17:14.349Z,39.90
2017-07-01T22:19:43.253Z,42.43
2017-07-01T22:22:11.385Z,41.50
2017-07-01T22:24:40.936Z,41.03
2017-07-01T22:27:09.285Z,44.17
2017-07-01T22:29:38.825Z,43.97
2017-07-01T22:32:07.401Z,42.33
2017-07-01T22:34:35.665Z,46.40
2017-07-01T22:37:04.529Z,45.63
2017-07-01T22:39:33.869Z,46.23
2017-07-01T22:42:02.775Z,47.17
2017-07-01T22:44:31.620Z,45.60
2017-07-01T22:47:01.052Z,47.17
2017-07-01T22:49:29.857Z,47.03
2017-07-01T22:51:57.976Z,49.83
2017-07-01T22:54:26.705Z,49.50
2017-07-01T22:56:55.193Z,49.77
2017-07-01T22:59:23.782Z,49.30
2017-07-01T23:01:52.464Z,47.50
2017-07-01T23:04:20.713Z,50.03
2017-07-01T23:06:48.873Z,52.90
2017-07-01T23:09:17.605Z,51.13
2017-07-01T23:11:46.505Z,51.93
2017-07-01T23:14:14.837Z,47.77
2017-07-01T23:16:44.392Z,51.33
2017-07-01T23:19:13.440Z,51.53
2017-07-01T23:21:42.285Z,50.77
2017-07-01T23:24:11.173Z,49.73
2017-07-01T23:26:39.982Z,52.90
2017-07-01T23:29:08.573Z,52.57
2017-07-01T23:31:37.233Z,55.50
2017-07-01T23:34:06.229Z,53.90
2017-07-01T23:36:35.073Z,55.00
2017-07-01T23:39:04.861Z,57.97
2017-07-01T23:41:33.609Z,56.50
2017-07-01T23:44:02.409Z,53.50
2017-07-01T23:46:31.257Z,55.83
2017-07-01T23:49:00.947Z,54.17
2017-07-01T23:51:29.700Z,59.70
2017-07-01T23:53:57.909Z,57.20
2017-07-01T23:56:26.699Z,58.30
2017-07-01T23:58:54.869Z,56.67
